createdAt,value
2023-03-18T00:02:50.834Z,99831.78
2023-03-18T00:05:54.043Z,99835.31
2023-03-18T00:09:00.858Z,99831.78
2023-03-18T00:12:05.108Z,99845.53
2023-03-18T00:15:09.629Z,99849.44
2023-03-18T00:18:13.013Z,99855.00
2023-03-18T00:21:19.622Z,99855.06
2023-03-18T00:24:23.665Z,99864.25
2023-03-18T00:27:26.427Z,99866.16
2023-03-18T00:30:30.564Z,99866.22
2023-03-18T00:33:33.741Z,99875.97
2023-03-18T00:36:37.265Z,99873.16
2023-03-18T00:39:44.305Z,99875.69
2023-03-18T00:42:50.616Z,99881.09
2023-03-18T00:45:55.498Z,99882.91
2023-03-18T00:49:02.393Z,99884.66
2023-03-18T00:52:05.263Z,99884.94
2023-03-18T00:55:10.638Z,99875.28
2023-03-18T00:58:13.584Z,99879.06
2023-03-18T01:01:18.282Z,99880.69
2023-03-18T01:04:21.557Z,99874.97
2023-03-18T01:07:25.208Z,99886.63
2023-03-18T01:10:30.787Z,99891.88
2023-03-18T01:13:34.343Z,99886.31
2023-03-18T01:16:38.881Z,99884.25
2023-03-18T01:19:42.373Z,99884.19
2023-03-18T01:22:45.429Z,99885.84
2023-03-18T01:25:49.909Z,99884.84
2023-03-18T01:28:55.379Z,99885.41
2023-03-18T01:32:00.311Z,99891.47
2023-03-18T01:35:05.702Z,99881.34
2023-03-18T01:38:09.262Z,99877.47
2023-03-18T01:41:13.576Z,99886.59
2023-03-18T01:44:17.992Z,99888.72
2023-03-18T01:47:21.696Z,99887.84
2023-03-18T01:50:28.433Z,99882.34
2023-03-18T01:53:45.182Z,99890.59
2023-03-18T01:56:53.993Z,99892.31
2023-03-18T01:59:58.968Z,99894.81
2023-03-18T02:03:01.681Z,99891.31
2023-03-18T02:06:04.749Z,99886.59
2023-03-18T02:09:08.580Z,99881.94
2023-03-18T02:12:14.502Z,99871.66
2023-03-18T02:15:23.296Z,99884.69
2023-03-18T02:18:31.247Z,99882.81
2023-03-18T02:21:42.916Z,99885.44
2023-03-18T02:24:57.046Z,99892.59
2023-03-18T02:28:07.742Z,99886.31
2023-03-18T02:31:14.047Z,99883.81
2023-03-18T02:34:17.828Z,99889.34
2023-03-18T02:37:22.831Z,99878.47
2023-03-18T02:40:29.045Z,99887.53
2023-03-18T02:43:37.896Z,99892.50
2023-03-18T02:46:54.048Z,99898.28
2023-03-18T02:49:57.958Z,99897.34
2023-03-18T02:53:05.862Z,99897.56
2023-03-18T02:56:09.255Z,99896.78
2023-03-18T02:59:14.225Z,99903.22
2023-03-18T03:02:43.051Z,99902.28
2023-03-18T03:05:45.869Z,99897.56
2023-03-18T03:08:48.605Z,99900.97
2023-03-18T03:11:54.337Z,99908.94
2023-03-18T03:15:00.724Z,99909.91
2023-03-18T03:18:04.261Z,99905.22
2023-03-18T03:21:07.836Z,99906.13
2023-03-18T03:24:25.692Z,99916.97
2023-03-18T03:27:31.590Z,99909.69
2023-03-18T03:30:36.729Z,99904.34
2023-03-18T03:33:41.383Z,99914.78
2023-03-18T03:36:46.300Z,99911.25
2023-03-18T03:39:49.011Z,99922.03
2023-03-18T03:42:51.790Z,99913.94
2023-03-18T03:46:03.294Z,99917.34
2023-03-18T03:49:12.782Z,99919.97
2023-03-18T03:52:15.445Z,99919.09
2023-03-18T03:55:20.587Z,99922.47
2023-03-18T03:58:23.835Z,99928.81
2023-03-18T04:01:28.248Z,99932.34
2023-03-18T04:04:31.931Z,99931.50
2023-03-18T04:07:34.611Z,99935.91
2023-03-18T04:10:40.814Z,99924.97
2023-03-18T04:13:43.599Z,99931.25
2023-03-18T04:16:47.623Z,99923.31
2023-03-18T04:19:50.505Z,99936.34
2023-03-18T04:22:53.152Z,99928.53
2023-03-18T04:25:55.834Z,99941.38
2023-03-18T04:28:58.690Z,99951.28
2023-03-18T04:32:03.328Z,99942.94
2023-03-18T04:35:06.889Z,99933.84
2023-03-18T04:38:09.628Z,99933.53
2023-03-18T04:41:12.294Z,99940.53
2023-03-18T04:44:14.942Z,99939.00
2023-03-18T04:47:19.494Z,99916.91
2023-03-18T04:50:22.548Z,99953.41
2023-03-18T04:53:29.118Z,99953.75
2023-03-18T04:56:34.538Z,99945.63
2023-03-18T04:59:37.223Z,99943.81
2023-03-18T05:02:41.683Z,99933.34
2023-03-18T05:05:44.338Z,99944.34
2023-03-18T05:08:47.010Z,99939.59
2023-03-18T05:11:52.238Z,99938.09
2023-03-18T05:14:55.017Z,99937.22
2023-03-18T05:17:59.361Z,99929.19
2023-03-18T05:21:05.127Z,99923.38
2023-03-18T05:24:12.022Z,99941.75
2023-03-18T05:27:19.267Z,99942.13
2023-03-18T05:30:23.369Z,99939.56
2023-03-18T05:33:27.454Z,99934.28
2023-03-18T05:36:30.737Z,99931.47
2023-03-18T05:39:34.678Z,99928.38
2023-03-18T05:42:49.405Z,99932.03
2023-03-18T05:45:58.246Z,99930.91
2023-03-18T05:49:02.266Z,99922.84
2023-03-18T05:52:08.174Z,99929.91
2023-03-18T05:55:13.909Z,99933.66
2023-03-18T05:58:16.638Z,99940.34
2023-03-18T06:01:20.378Z,99939.06
2023-03-18T06:04:24.921Z,99942.63
2023-03-18T06:07:28.003Z,99941.31
2023-03-18T06:10:33.786Z,99950.16
2023-03-18T06:13:36.591Z,99950.59
2023-03-18T06:16:39.371Z,99955.91
2023-03-18T06:19:44.964Z,99955.13
2023-03-18T06:22:50.751Z,99952.47
2023-03-18T06:25:53.425Z,99958.38
2023-03-18T06:28:59.407Z,99954.75
2023-03-18T06:32:03.830Z,99958.22
2023-03-18T06:35:12.213Z,99953.91
2023-03-18T06:38:16.664Z,99959.31
2023-03-18T06:41:20.518Z,99955.22
2023-03-18T06:44:24.562Z,99953.53
2023-03-18T06:47:29.817Z,99959.88
2023-03-18T06:50:39.556Z,99967.91
2023-03-18T06:53:43.154Z,99957.78
2023-03-18T06:56:46.778Z,99967.50
2023-03-18T06:59:49.738Z,99959.78
2023-03-18T07:02:53.168Z,99967.66
2023-03-18T07:05:57.429Z,99969.63
2023-03-18T07:09:04.327Z,99970.38
2023-03-18T07:12:14.772Z,99967.97
2023-03-18T07:15:20.247Z,99950.50
2023-03-18T07:18:23.439Z,99958.44
2023-03-18T07:21:29.349Z,99957.59
2023-03-18T07:24:32.028Z,99957.03
2023-03-18T07:27:34.697Z,99955.16
2023-03-18T07:30:40.677Z,99958.50
2023-03-18T07:33:43.427Z,99958.13
2023-03-18T07:36:48.744Z,99958.69
2023-03-18T07:39:53.034Z,99961.22
2023-03-18T07:42:58.726Z,99958.50
2023-03-18T07:46:02.291Z,99966.88
2023-03-18T07:49:05.044Z,99974.56
2023-03-18T07:52:10.514Z,99979.84
2023-03-18T07:55:13.701Z,99981.94
2023-03-18T07:58:16.400Z,99982.38
2023-03-18T08:01:20.470Z,99978.06
2023-03-18T08:04:26.118Z,99977.34
2023-03-18T08:07:33.323Z,99984.06
2023-03-18T08:10:36.656Z,99980.09
2023-03-18T08:13:40.447Z,99970.56
2023-03-18T08:16:43.389Z,99975.66
2023-03-18T08:19:47.103Z,99977.06
2023-03-18T08:22:51.492Z,99973.75
2023-03-18T08:25:54.263Z,99969.50
2023-03-18T08:28:57.335Z,99968.09
2023-03-18T08:32:00.861Z,99965.63
2023-03-18T08:35:05.187Z,99963.38
2023-03-18T08:38:09.834Z,99953.53
2023-03-18T08:41:12.506Z,99971.06
2023-03-18T08:44:15.365Z,99948.50
2023-03-18T08:47:18.017Z,99958.72
2023-03-18T08:50:21.032Z,99952.63
2023-03-18T08:53:25.043Z,99952.97
2023-03-18T08:56:28.288Z,99959.41
2023-03-18T08:59:31.407Z,99950.59
2023-03-18T09:02:37.175Z,99936.66
2023-03-18T09:05:40.265Z,99946.97
2023-03-18T09:08:44.801Z,99926.59
2023-03-18T09:11:49.901Z,99932.06
2023-03-18T09:14:52.628Z,99926.66
2023-03-18T09:18:11.703Z,99919.91
2023-03-18T09:21:15.134Z,99916.03
2023-03-18T09:24:19.212Z,99912.53
2023-03-18T09:27:24.258Z,99915.97
2023-03-18T09:30:31.472Z,99920.50
2023-03-18T09:33:34.453Z,99916.94
2023-03-18T09:36:37.231Z,99905.59
2023-03-18T09:39:41.265Z,99901.31
2023-03-18T09:42:56.618Z,99891.38
2023-03-18T09:46:11.753Z,99876.78
2023-03-18T09:49:31.495Z,99859.13
2023-03-18T09:52:43.558Z,99872.25
2023-03-18T09:55:55.719Z,99855.81
2023-03-18T09:59:04.479Z,99885.84
2023-03-18T10:02:21.560Z,99886.28
2023-03-18T10:05:28.830Z,99887.31
2023-03-18T10:08:43.008Z,99875.56
2023-03-18T10:11:52.265Z,99877.34
2023-03-18T10:15:08.716Z,99872.78
2023-03-18T10:18:15.278Z,99865.97
2023-03-18T10:21:27.964Z,99862.66
2023-03-18T10:25:00.601Z,99870.38
2023-03-18T10:28:26.847Z,99864.44
2023-03-18T10:31:40.479Z,99860.41
2023-03-18T10:34:57.969Z,99858.94
2023-03-18T10:38:19.595Z,99855.97
2023-03-18T10:41:28.777Z,99850.91
2023-03-18T10:44:42.805Z,99849.94
2023-03-18T10:47:49.412Z,99852.72
2023-03-18T10:51:04.392Z,99850.38
2023-03-18T10:54:13.687Z,99847.44
2023-03-18T10:57:17.083Z,99848.75
2023-03-18T11:00:28.990Z,99846.75
2023-03-18T11:03:35.890Z,99837.56
2023-03-18T11:06:45.192Z,99837.47
2023-03-18T11:09:48.088Z,99830.47
2023-03-18T11:12:50.783Z,99832.50
2023-03-18T11:15:58.543Z,99829.75
2023-03-18T11:19:25.671Z,99829.53
2023-03-18T11:22:28.950Z,99814.28
2023-03-18T11:25:32.473Z,99824.88
2023-03-18T11:28:42.807Z,99821.13
2023-03-18T11:31:58.113Z,99816.66
2023-03-18T11:35:02.567Z,99822.72
2023-03-18T11:38:06.919Z,99815.50
2023-03-18T11:41:14.476Z,99816.56
2023-03-18T11:44:19.105Z,99810.03
2023-03-18T11:47:28.329Z,99809.31
2023-03-18T11:50:41.636Z,99802.16
2023-03-18T11:54:00.066Z,99792.31
2023-03-18T11:57:12.143Z,99791.19
2023-03-18T12:00:25.634Z,99790.53
2023-03-18T12:03:58.628Z,99787.25
2023-03-18T12:07:40.317Z,99780.09
2023-03-18T12:10:48.588Z,99780.72
2023-03-18T12:14:10.656Z,99770.25
2023-03-18T12:17:32.826Z,99772.28
2023-03-18T12:20:50.610Z,99768.56
2023-03-18T12:24:11.012Z,99768.13
2023-03-18T12:27:21.108Z,99766.75
2023-03-18T12:30:58.983Z,99764.19
2023-03-18T12:34:04.533Z,99768.00
2023-03-18T12:37:25.593Z,99763.38
2023-03-18T12:40:42.800Z,99757.91
2023-03-18T12:44:12.570Z,99757.72
2023-03-18T12:47:19.853Z,99757.31
2023-03-18T12:50:27.308Z,99752.53
2023-03-18T12:53:45.385Z,99748.66
2023-03-18T12:56:53.544Z,99748.31
2023-03-18T13:00:02.951Z,99742.03
2023-03-18T13:03:23.419Z,99744.84
2023-03-18T13:06:31.870Z,99740.19
2023-03-18T13:09:39.703Z,99731.19
2023-03-18T13:12:45.387Z,99728.91
2023-03-18T13:15:52.448Z,99731.56
2023-03-18T13:18:58.387Z,99733.88
2023-03-18T13:22:13.286Z,99728.88
2023-03-18T13:25:25.847Z,99729.75
2023-03-18T13:28:49.666Z,99725.13
2023-03-18T13:31:59.885Z,99725.44
2023-03-18T13:35:19.253Z,99722.13
2023-03-18T13:38:50.180Z,99717.84
2023-03-18T13:42:23.935Z,99700.75
2023-03-18T13:45:32.168Z,99713.50
2023-03-18T13:48:37.484Z,99718.75
2023-03-18T13:51:56.897Z,99691.25
2023-03-18T13:55:28.677Z,99708.97
2023-03-18T13:58:36.596Z,99704.91
2023-03-18T14:02:00.273Z,99701.44
2023-03-18T14:05:04.190Z,99706.31
2023-03-18T14:08:46.145Z,99712.03
2023-03-18T14:11:50.364Z,99706.56
2023-03-18T14:15:03.745Z,99700.09
2023-03-18T14:18:27.291Z,99704.00
2023-03-18T14:21:32.627Z,99705.19
2023-03-18T14:24:35.651Z,99707.53
2023-03-18T14:27:47.426Z,99694.94
2023-03-18T14:31:00.624Z,99696.53
2023-03-18T14:34:23.740Z,99687.00
2023-03-18T14:37:29.410Z,99685.94
2023-03-18T14:40:38.533Z,99678.81
2023-03-18T14:43:49.085Z,99679.94
2023-03-18T14:47:00.784Z,99667.44
2023-03-18T14:50:07.162Z,99674.56
2023-03-18T14:53:26.679Z,99679.94
2023-03-18T14:56:31.866Z,99682.84
2023-03-18T14:59:34.521Z,99678.22
2023-03-18T15:02:40.830Z,99676.47
2023-03-18T15:05:46.480Z,99678.09
2023-03-18T15:08:51.550Z,99669.75
2023-03-18T15:11:54.770Z,99675.09
2023-03-18T15:14:57.748Z,99683.81
2023-03-18T15:18:06.005Z,99651.72
2023-03-18T15:21:11.799Z,99684.09
2023-03-18T15:24:19.662Z,99696.75
2023-03-18T15:27:23.128Z,99689.66
2023-03-18T15:30:28.701Z,99691.97
2023-03-18T15:33:38.110Z,99691.81
2023-03-18T15:36:42.934Z,99697.88
2023-03-18T15:39:45.883Z,99697.75
2023-03-18T15:42:48.781Z,99704.25
2023-03-18T15:45:55.179Z,99701.50
2023-03-18T15:49:02.245Z,99702.06
2023-03-18T15:52:09.499Z,99702.63
2023-03-18T15:55:28.911Z,99706.22
2023-03-18T15:58:37.505Z,99699.97
2023-03-18T16:01:41.838Z,99676.50
2023-03-18T16:04:46.580Z,99706.25
2023-03-18T16:07:49.778Z,99701.31
2023-03-18T16:10:56.570Z,99700.72
2023-03-18T16:13:59.755Z,99702.34
2023-03-18T16:17:02.623Z,99701.19
2023-03-18T16:20:15.591Z,99706.06
2023-03-18T16:23:21.838Z,99693.19
2023-03-18T16:26:24.836Z,99704.81
2023-03-18T16:29:32.950Z,99717.19
2023-03-18T16:32:36.038Z,99715.88
2023-03-18T16:35:40.425Z,99714.81
2023-03-18T16:38:43.133Z,99716.88
2023-03-18T16:41:46.543Z,99717.34
2023-03-18T16:44:52.526Z,99722.28
2023-03-18T16:47:59.455Z,99720.72
2023-03-18T16:51:04.555Z,99723.59
2023-03-18T16:54:17.973Z,99727.38
2023-03-18T16:57:23.546Z,99727.28
2023-03-18T17:00:30.865Z,99730.31
2023-03-18T17:03:37.070Z,99744.50
2023-03-18T17:06:42.280Z,99744.38
2023-03-18T17:09:44.957Z,99754.31
2023-03-18T17:12:53.010Z,99760.84
2023-03-18T17:15:58.672Z,99757.31
2023-03-18T17:19:01.542Z,99774.03
2023-03-18T17:22:12.349Z,99776.56
2023-03-18T17:25:16.210Z,99782.00
2023-03-18T17:28:24.916Z,99787.97
2023-03-18T17:31:27.600Z,99792.06
2023-03-18T17:34:33.557Z,99791.44
2023-03-18T17:37:37.532Z,99792.56
2023-03-18T17:40:42.738Z,99802.06
2023-03-18T17:43:47.165Z,99803.22
2023-03-18T17:46:56.948Z,99808.88
2023-03-18T17:50:00.943Z,99815.19
2023-03-18T17:53:05.939Z,99806.88
2023-03-18T17:56:11.849Z,99821.22
2023-03-18T17:59:16.171Z,99822.97
2023-03-18T18:02:21.939Z,99828.03
2023-03-18T18:05:25.137Z,99832.25
2023-03-18T18:08:31.655Z,99835.69
2023-03-18T18:11:37.869Z,99839.59
2023-03-18T18:14:40.526Z,99833.69
2023-03-18T18:17:43.540Z,99834.28
2023-03-18T18:20:53.448Z,99830.00
2023-03-18T18:23:57.516Z,99836.91
2023-03-18T18:27:07.837Z,99841.59
2023-03-18T18:30:16.468Z,99839.47
2023-03-18T18:33:19.126Z,99847.75
2023-03-18T18:36:22.635Z,99842.59
2023-03-18T18:39:26.644Z,99848.59
2023-03-18T18:42:29.300Z,99848.38
2023-03-18T18:45:34.400Z,99839.44
2023-03-18T18:48:43.150Z,99851.72
2023-03-18T18:51:48.973Z,99847.97
2023-03-18T18:54:53.346Z,99859.59
2023-03-18T18:57:56.051Z,99854.88
2023-03-18T19:01:00.002Z,99860.19
2023-03-18T19:04:30.776Z,99871.50
2023-03-18T19:07:40.748Z,99875.53
2023-03-18T19:10:44.904Z,99881.22
2023-03-18T19:13:47.692Z,99874.25
2023-03-18T19:16:50.404Z,99875.13
2023-03-18T19:19:53.712Z,99888.06
2023-03-18T19:22:57.935Z,99883.97
2023-03-18T19:26:06.161Z,99886.94
2023-03-18T19:29:18.889Z,99889.13
2023-03-18T19:32:23.134Z,99892.19
2023-03-18T19:35:26.113Z,99888.69
2023-03-18T19:38:31.271Z,99902.00
2023-03-18T19:41:38.381Z,99898.66
2023-03-18T19:44:45.004Z,99896.94
2023-03-18T19:47:50.592Z,99899.81
2023-03-18T19:50:55.534Z,99901.72
2023-03-18T19:54:01.973Z,99897.25
2023-03-18T19:57:14.039Z,99902.88
2023-03-18T20:00:21.854Z,99908.72
2023-03-18T20:03:27.134Z,99917.44
2023-03-18T20:06:32.773Z,99920.47
2023-03-18T20:09:39.388Z,99920.78
2023-03-18T20:12:49.156Z,99926.75
2023-03-18T20:15:52.021Z,99927.59
2023-03-18T20:18:57.723Z,99932.44
2023-03-18T20:22:02.534Z,99939.00
2023-03-18T20:25:19.054Z,99936.50
2023-03-18T20:28:25.656Z,99915.63
2023-03-18T20:31:31.435Z,99953.72
2023-03-18T20:34:38.096Z,99947.53
2023-03-18T20:37:43.878Z,99946.00
2023-03-18T20:40:47.812Z,99947.19
2023-03-18T20:43:51.846Z,99946.50
2023-03-18T20:47:00.700Z,99952.06
2023-03-18T20:50:04.445Z,99962.91
2023-03-18T20:53:17.882Z,99955.59
2023-03-18T20:56:22.853Z,99948.00
2023-03-18T20:59:30.013Z,99952.28
2023-03-18T21:02:39.049Z,99945.84
2023-03-18T21:05:44.724Z,99948.28
2023-03-18T21:08:47.381Z,99946.56
2023-03-18T21:11:53.063Z,99952.00
2023-03-18T21:14:59.681Z,99956.53
2023-03-18T21:18:02.346Z,99949.34
2023-03-18T21:21:07.261Z,99948.56
2023-03-18T21:24:31.126Z,99945.84
2023-03-18T21:27:34.725Z,99955.66
2023-03-18T21:30:38.743Z,99955.59
2023-03-18T21:33:43.069Z,99955.41
2023-03-18T21:36:45.666Z,99958.28
2023-03-18T21:39:48.730Z,99955.81
2023-03-18T21:42:52.469Z,99955.09
2023-03-18T21:46:04.157Z,99961.63
2023-03-18T21:49:12.938Z,99956.47
2023-03-18T21:52:19.495Z,99955.72
2023-03-18T21:55:22.455Z,99943.78
2023-03-18T21:58:27.668Z,99960.66
2023-03-18T22:01:34.995Z,99951.81
2023-03-18T22:04:39.777Z,99949.97
2023-03-18T22:07:45.955Z,99960.03
2023-03-18T22:10:50.537Z,99950.16
2023-03-18T22:13:53.970Z,99959.16
2023-03-18T22:16:57.941Z,99965.59
2023-03-18T22:20:03.469Z,99967.50
2023-03-18T22:23:14.604Z,99939.44
2023-03-18T22:26:21.623Z,99971.25
2023-03-18T22:29:24.361Z,99967.50
2023-03-18T22:32:37.761Z,99970.22
2023-03-18T22:35:40.562Z,99967.34
2023-03-18T22:38:43.442Z,99964.72
2023-03-18T22:41:46.721Z,99962.97
2023-03-18T22:44:52.333Z,99965.53
2023-03-18T22:47:58.472Z,99954.63
2023-03-18T22:51:05.401Z,99961.13
2023-03-18T22:54:08.077Z,99969.44
2023-03-18T22:57:18.111Z,99957.88
2023-03-18T23:00:23.991Z,99960.81
2023-03-18T23:03:30.567Z,99971.78
2023-03-18T23:06:33.628Z,99977.53
2023-03-18T23:09:56.176Z,99965.69
2023-03-18T23:12:59.521Z,99974.66
2023-03-18T23:16:04.298Z,99985.16
2023-03-18T23:19:14.907Z,99974.06
2023-03-18T23:22:23.679Z,99984.56
2023-03-18T23:25:26.474Z,99986.03
2023-03-18T23:28:29.127Z,99991.59
2023-03-18T23:31:33.065Z,100002.06
2023-03-18T23:34:39.682Z,99997.19
2023-03-18T23:37:42.562Z,99997.53
2023-03-18T23:40:45.679Z,99999.75
2023-03-18T23:43:48.394Z,99999.31
2023-03-18T23:46:55.337Z,99999.66
2023-03-18T23:49:59.293Z,100009.75
2023-03-18T23:53:02.360Z,100012.53
2023-03-18T23:56:05.339Z,100009.75
2023-03-18T23:59:10.399Z,100017.03
